sensor_id;sensor_type;location;lat;lon;timestamp;P1;durP1;ratioP1;P2;durP2;ratioP2
21352;SDS011;10834;52.268;6.770;2023-12-14T00:00:56;20.30;;;13.80;;
21352;SDS011;10834;52.268;6.770;2023-12-14T00:03:40;22.87;;;12.77;;
21352;SDS011;10834;52.268;6.770;2023-12-14T00:06:25;20.53;;;13.43;;
21352;SDS011;10834;52.268;6.770;2023-12-14T00:09:09;23.93;;;12.63;;
21352;SDS011;10834;52.268;6.770;2023-12-14T00:11:53;22.83;;;13.37;;
21352;SDS011;10834;52.268;6.770;2023-12-14T00:14:38;21.67;;;13.50;;
21352;SDS011;10834;52.268;6.770;2023-12-14T00:17:22;22.13;;;14.13;;
21352;SDS011;10834;52.268;6.770;2023-12-14T00:20:07;26.87;;;13.73;;
21352;SDS011;10834;52.268;6.770;2023-12-14T00:22:52;25.23;;;14.03;;
21352;SDS011;10834;52.268;6.770;2023-12-14T00:25:36;25.73;;;14.87;;
21352;SDS011;10834;52.268;6.770;2023-12-14T00:28:20;24.63;;;14.37;;
21352;SDS011;10834;52.268;6.770;2023-12-14T00:31:04;28.27;;;15.00;;
21352;SDS011;10834;52.268;6.770;2023-12-14T00:33:48;25.93;;;15.17;;
21352;SDS011;10834;52.268;6.770;2023-12-14T00:36:32;25.67;;;15.17;;
21352;SDS011;10834;52.268;6.770;2023-12-14T00:39:16;21.47;;;13.93;;
21352;SDS011;10834;52.268;6.770;2023-12-14T00:42:00;23.70;;;14.33;;
21352;SDS011;10834;52.268;6.770;2023-12-14T00:44:44;21.00;;;14.37;;
21352;SDS011;10834;52.268;6.770;2023-12-14T00:47:29;23.77;;;14.60;;
21352;SDS011;10834;52.268;6.770;2023-12-14T00:50:13;24.77;;;14.87;;
21352;SDS011;10834;52.268;6.770;2023-12-14T00:52:57;24.07;;;13.60;;
21352;SDS011;10834;52.268;6.770;2023-12-14T00:55:41;22.73;;;14.10;;
21352;SDS011;10834;52.268;6.770;2023-12-14T00:58:25;24.57;;;14.43;;
21352;SDS011;10834;52.268;6.770;2023-12-14T01:01:09;22.10;;;13.97;;
21352;SDS011;10834;52.268;6.770;2023-12-14T01:03:54;24.30;;;14.40;;
21352;SDS011;10834;52.268;6.770;2023-12-14T01:06:38;20.83;;;14.70;;
21352;SDS011;10834;52.268;6.770;2023-12-14T01:09:22;27.07;;;14.97;;
21352;SDS011;10834;52.268;6.770;2023-12-14T01:12:06;25.77;;;15.00;;
21352;SDS011;10834;52.268;6.770;2023-12-14T01:14:50;22.33;;;14.57;;
21352;SDS011;10834;52.268;6.770;2023-12-14T01:17:34;25.00;;;14.27;;
21352;SDS011;10834;52.268;6.770;2023-12-14T01:20:21;23.27;;;13.63;;
21352;SDS011;10834;52.268;6.770;2023-12-14T01:23:05;24.47;;;15.57;;
21352;SDS011;10834;52.268;6.770;2023-12-14T01:25:49;24.57;;;14.53;;
21352;SDS011;10834;52.268;6.770;2023-12-14T01:28:33;24.47;;;15.17;;
21352;SDS011;10834;52.268;6.770;2023-12-14T01:31:17;23.97;;;13.53;;
21352;SDS011;10834;52.268;6.770;2023-12-14T01:34:03;22.50;;;14.67;;
21352;SDS011;10834;52.268;6.770;2023-12-14T01:36:47;24.00;;;13.93;;
21352;SDS011;10834;52.268;6.770;2023-12-14T01:39:31;18.83;;;11.83;;
21352;SDS011;10834;52.268;6.770;2023-12-14T01:42:15;22.27;;;13.53;;
21352;SDS011;10834;52.268;6.770;2023-12-14T01:44:59;21.90;;;13.27;;
21352;SDS011;10834;52.268;6.770;2023-12-14T01:47:43;19.10;;;12.07;;
21352;SDS011;10834;52.268;6.770;2023-12-14T01:50:28;19.33;;;13.13;;
21352;SDS011;10834;52.268;6.770;2023-12-14T01:53:12;20.10;;;12.10;;
21352;SDS011;10834;52.268;6.770;2023-12-14T01:55:57;18.70;;;11.33;;
21352;SDS011;10834;52.268;6.770;2023-12-14T01:58:41;18.50;;;11.47;;
21352;SDS011;10834;52.268;6.770;2023-12-14T02:01:44;18.27;;;11.63;;
21352;SDS011;10834;52.268;6.770;2023-12-14T02:04:30;20.20;;;12.10;;
21352;SDS011;10834;52.268;6.770;2023-12-14T02:07:14;20.40;;;12.50;;
21352;SDS011;10834;52.268;6.770;2023-12-14T02:09:58;20.60;;;12.87;;
21352;SDS011;10834;52.268;6.770;2023-12-14T02:12:43;19.20;;;13.03;;
21352;SDS011;10834;52.268;6.770;2023-12-14T02:15:27;21.43;;;12.47;;
21352;SDS011;10834;52.268;6.770;2023-12-14T02:18:11;21.47;;;13.13;;
21352;SDS011;10834;52.268;6.770;2023-12-14T02:20:55;22.20;;;12.20;;
21352;SDS011;10834;52.268;6.770;2023-12-14T02:23:45;22.03;;;12.80;;
21352;SDS011;10834;52.268;6.770;2023-12-14T02:26:29;22.93;;;13.53;;
21352;SDS011;10834;52.268;6.770;2023-12-14T02:29:14;21.90;;;13.53;;
21352;SDS011;10834;52.268;6.770;2023-12-14T02:31:58;24.07;;;14.20;;
21352;SDS011;10834;52.268;6.770;2023-12-14T02:34:42;22.37;;;13.17;;
21352;SDS011;10834;52.268;6.770;2023-12-14T02:37:26;23.67;;;13.03;;
21352;SDS011;10834;52.268;6.770;2023-12-14T02:40:11;26.23;;;14.23;;
21352;SDS011;10834;52.268;6.770;2023-12-14T02:42:55;22.03;;;13.80;;
21352;SDS011;10834;52.268;6.770;2023-12-14T02:45:39;23.47;;;12.07;;
21352;SDS011;10834;52.268;6.770;2023-12-14T02:48:23;25.17;;;13.40;;
21352;SDS011;10834;52.268;6.770;2023-12-14T02:51:07;22.33;;;13.10;;
21352;SDS011;10834;52.268;6.770;2023-12-14T02:53:56;21.87;;;13.63;;
21352;SDS011;10834;52.268;6.770;2023-12-14T02:56:41;20.83;;;13.00;;
21352;SDS011;10834;52.268;6.770;2023-12-14T02:59:25;22.43;;;13.37;;
21352;SDS011;10834;52.268;6.770;2023-12-14T03:02:09;19.63;;;12.47;;
21352;SDS011;10834;52.268;6.770;2023-12-14T03:04:53;19.43;;;12.60;;
21352;SDS011;10834;52.268;6.770;2023-12-14T03:07:37;22.70;;;14.17;;
21352;SDS011;10834;52.268;6.770;2023-12-14T03:10:21;16.67;;;10.97;;
21352;SDS011;10834;52.268;6.770;2023-12-14T03:13:05;19.13;;;12.27;;
21352;SDS011;10834;52.268;6.770;2023-12-14T03:15:49;20.27;;;12.40;;
21352;SDS011;10834;52.268;6.770;2023-12-14T03:18:33;18.50;;;11.87;;
21352;SDS011;10834;52.268;6.770;2023-12-14T03:21:17;16.93;;;11.87;;
21352;SDS011;10834;52.268;6.770;2023-12-14T03:24:02;18.43;;;11.57;;
21352;SDS011;10834;52.268;6.770;2023-12-14T03:26:46;18.50;;;12.90;;
21352;SDS011;10834;52.268;6.770;2023-12-14T03:29:30;20.73;;;12.67;;
21352;SDS011;10834;52.268;6.770;2023-12-14T03:32:15;18.07;;;12.27;;
21352;SDS011;10834;52.268;6.770;2023-12-14T03:34:59;21.17;;;12.70;;
21352;SDS011;10834;52.268;6.770;2023-12-14T03:37:43;20.20;;;12.87;;
21352;SDS011;10834;52.268;6.770;2023-12-14T03:40:27;23.20;;;13.47;;
21352;SDS011;10834;52.268;6.770;2023-12-14T03:43:11;22.67;;;14.07;;
21352;SDS011;10834;52.268;6.770;2023-12-14T03:45:55;18.17;;;12.37;;
21352;SDS011;10834;52.268;6.770;2023-12-14T03:48:39;21.73;;;12.73;;
21352;SDS011;10834;52.268;6.770;2023-12-14T03:51:24;18.90;;;12.03;;
21352;SDS011;10834;52.268;6.770;2023-12-14T03:54:08;21.60;;;13.37;;
21352;SDS011;10834;52.268;6.770;2023-12-14T03:56:52;21.53;;;12.57;;
21352;SDS011;10834;52.268;6.770;2023-12-14T03:59:39;18.07;;;11.67;;
21352;SDS011;10834;52.268;6.770;2023-12-14T04:02:24;20.70;;;13.80;;
21352;SDS011;10834;52.268;6.770;2023-12-14T04:05:08;17.10;;;11.80;;
21352;SDS011;10834;52.268;6.770;2023-12-14T04:07:53;19.40;;;12.03;;
21352;SDS011;10834;52.268;6.770;2023-12-14T04:10:37;19.33;;;11.70;;
21352;SDS011;10834;52.268;6.770;2023-12-14T04:13:21;15.17;;;10.77;;
21352;SDS011;10834;52.268;6.770;2023-12-14T04:16:05;17.93;;;11.40;;
21352;SDS011;10834;52.268;6.770;2023-12-14T04:18:50;17.43;;;12.50;;
21352;SDS011;10834;52.268;6.770;2023-12-14T04:21:34;17.53;;;11.90;;
21352;SDS011;10834;52.268;6.770;2023-12-14T04:24:18;18.00;;;11.67;;
21352;SDS011;10834;52.268;6.770;2023-12-14T04:27:02;15.70;;;11.20;;
21352;SDS011;10834;52.268;6.770;2023-12-14T04:29:46;15.87;;;10.27;;
21352;SDS011;10834;52.268;6.770;2023-12-14T04:32:30;15.87;;;10.97;;
21352;SDS011;10834;52.268;6.770;2023-12-14T04:35:14;15.73;;;10.57;;
21352;SDS011;10834;52.268;6.770;2023-12-14T04:37:58;15.20;;;10.20;;
21352;SDS011;10834;52.268;6.770;2023-12-14T04:40:42;17.17;;;10.10;;
21352;SDS011;10834;52.268;6.770;2023-12-14T04:43:26;16.60;;;10.23;;
21352;SDS011;10834;52.268;6.770;2023-12-14T04:46:13;17.27;;;10.10;;
21352;SDS011;10834;52.268;6.770;2023-12-14T04:48:57;15.23;;;9.57;;
21352;SDS011;10834;52.268;6.770;2023-12-14T04:51:42;15.43;;;9.67;;
21352;SDS011;10834;52.268;6.770;2023-12-14T04:54:26;15.77;;;10.60;;
21352;SDS011;10834;52.268;6.770;2023-12-14T04:57:10;15.00;;;9.57;;
21352;SDS011;10834;52.268;6.770;2023-12-14T04:59:54;19.50;;;10.97;;
21352;SDS011;10834;52.268;6.770;2023-12-14T05:02:38;15.77;;;11.30;;
21352;SDS011;10834;52.268;6.770;2023-12-14T05:05:22;15.70;;;10.07;;
21352;SDS011;10834;52.268;6.770;2023-12-14T05:08:07;13.70;;;9.63;;
21352;SDS011;10834;52.268;6.770;2023-12-14T05:10:51;15.57;;;10.87;;
21352;SDS011;10834;52.268;6.770;2023-12-14T05:13:35;18.67;;;11.40;;
21352;SDS011;10834;52.268;6.770;2023-12-14T05:16:19;19.70;;;11.57;;
21352;SDS011;10834;52.268;6.770;2023-12-14T05:19:03;18.40;;;11.60;;
21352;SDS011;10834;52.268;6.770;2023-12-14T05:21:47;17.67;;;11.50;;
21352;SDS011;10834;52.268;6.770;2023-12-14T05:24:31;16.27;;;11.63;;
21352;SDS011;10834;52.268;6.770;2023-12-14T05:27:16;17.37;;;12.00;;
21352;SDS011;10834;52.268;6.770;2023-12-14T05:30:00;16.80;;;11.07;;
21352;SDS011;10834;52.268;6.770;2023-12-14T05:32:44;17.30;;;11.20;;
21352;SDS011;10834;52.268;6.770;2023-12-14T05:35:28;17.53;;;10.17;;
21352;SDS011;10834;52.268;6.770;2023-12-14T05:38:12;16.10;;;11.57;;
21352;SDS011;10834;52.268;6.770;2023-12-14T05:40:56;16.70;;;10.57;;
21352;SDS011;10834;52.268;6.770;2023-12-14T05:43:40;16.53;;;10.60;;
21352;SDS011;10834;52.268;6.770;2023-12-14T05:46:25;15.07;;;10.10;;
21352;SDS011;10834;52.268;6.770;2023-12-14T05:49:09;15.03;;;11.13;;
21352;SDS011;10834;52.268;6.770;2023-12-14T05:51:53;20.17;;;11.27;;
21352;SDS011;10834;52.268;6.770;2023-12-14T05:54:37;17.97;;;9.93;;
21352;SDS011;10834;52.268;6.770;2023-12-14T05:57:23;17.80;;;10.33;;
21352;SDS011;10834;52.268;6.770;2023-12-14T06:00:09;16.20;;;10.97;;
21352;SDS011;10834;52.268;6.770;2023-12-14T06:02:53;17.97;;;11.03;;
21352;SDS011;10834;52.268;6.770;2023-12-14T06:05:37;18.67;;;10.07;;
21352;SDS011;10834;52.268;6.770;2023-12-14T06:08:21;17.97;;;10.67;;
21352;SDS011;10834;52.268;6.770;2023-12-14T06:11:05;17.30;;;10.80;;
21352;SDS011;10834;52.268;6.770;2023-12-14T06:13:49;16.00;;;10.13;;
21352;SDS011;10834;52.268;6.770;2023-12-14T06:16:33;18.67;;;11.10;;
21352;SDS011;10834;52.268;6.770;2023-12-14T06:19:18;15.13;;;10.07;;
21352;SDS011;10834;52.268;6.770;2023-12-14T06:22:02;18.40;;;10.50;;
21352;SDS011;10834;52.268;6.770;2023-12-14T06:24:46;16.13;;;10.73;;
21352;SDS011;10834;52.268;6.770;2023-12-14T06:27:31;17.67;;;10.20;;
21352;SDS011;10834;52.268;6.770;2023-12-14T06:30:15;20.57;;;9.80;;
21352;SDS011;10834;52.268;6.770;2023-12-14T06:33:00;14.03;;;10.03;;
21352;SDS011;10834;52.268;6.770;2023-12-14T06:35:44;15.03;;;10.10;;
21352;SDS011;10834;52.268;6.770;2023-12-14T06:38:28;13.20;;;9.20;;
21352;SDS011;10834;52.268;6.770;2023-12-14T06:41:21;16.27;;;10.73;;
21352;SDS011;10834;52.268;6.770;2023-12-14T06:44:06;14.97;;;10.17;;
21352;SDS011;10834;52.268;6.770;2023-12-14T06:46:52;14.37;;;9.87;;
21352;SDS011;10834;52.268;6.770;2023-12-14T06:49:37;15.13;;;8.73;;
21352;SDS011;10834;52.268;6.770;2023-12-14T06:52:21;16.07;;;10.13;;
21352;SDS011;10834;52.268;6.770;2023-12-14T06:55:05;20.07;;;9.90;;
21352;SDS011;10834;52.268;6.770;2023-12-14T06:57:50;13.13;;;9.07;;
21352;SDS011;10834;52.268;6.770;2023-12-14T07:00:35;15.07;;;9.53;;
21352;SDS011;10834;52.268;6.770;2023-12-14T07:03:19;14.77;;;9.70;;
21352;SDS011;10834;52.268;6.770;2023-12-14T07:06:03;14.00;;;9.20;;
21352;SDS011;10834;52.268;6.770;2023-12-14T07:08:47;18.27;;;10.00;;
21352;SDS011;10834;52.268;6.770;2023-12-14T07:11:32;13.53;;;8.90;;
21352;SDS011;10834;52.268;6.770;2023-12-14T07:14:16;11.57;;;8.97;;
21352;SDS011;10834;52.268;6.770;2023-12-14T07:17:00;12.30;;;8.77;;
21352;SDS011;10834;52.268;6.770;2023-12-14T07:19:44;12.53;;;9.30;;
21352;SDS011;10834;52.268;6.770;2023-12-14T07:22:29;15.13;;;9.47;;
21352;SDS011;10834;52.268;6.770;2023-12-14T07:25:13;14.53;;;10.37;;
21352;SDS011;10834;52.268;6.770;2023-12-14T07:27:58;14.87;;;10.97;;
21352;SDS011;10834;52.268;6.770;2023-12-14T07:30:42;16.70;;;11.97;;
21352;SDS011;10834;52.268;6.770;2023-12-14T07:33:26;18.80;;;12.60;;
21352;SDS011;10834;52.268;6.770;2023-12-14T07:36:10;18.40;;;12.43;;
21352;SDS011;10834;52.268;6.770;2023-12-14T07:38:54;16.43;;;11.50;;
21352;SDS011;10834;52.268;6.770;2023-12-14T07:41:38;17.60;;;12.57;;
21352;SDS011;10834;52.268;6.770;2023-12-14T07:44:23;16.90;;;11.50;;
21352;SDS011;10834;52.268;6.770;2023-12-14T07:47:08;18.63;;;11.83;;
21352;SDS011;10834;52.268;6.770;2023-12-14T07:49:52;17.80;;;12.03;;
21352;SDS011;10834;52.268;6.770;2023-12-14T07:52:36;19.50;;;13.27;;
21352;SDS011;10834;52.268;6.770;2023-12-14T07:55:21;17.33;;;12.27;;
21352;SDS011;10834;52.268;6.770;2023-12-14T07:58:05;16.50;;;11.73;;
21352;SDS011;10834;52.268;6.770;2023-12-14T08:00:49;17.30;;;12.13;;
21352;SDS011;10834;52.268;6.770;2023-12-14T08:03:33;18.93;;;12.47;;
21352;SDS011;10834;52.268;6.770;2023-12-14T08:06:18;18.43;;;12.47;;
21352;SDS011;10834;52.268;6.770;2023-12-14T08:09:03;17.10;;;11.30;;
21352;SDS011;10834;52.268;6.770;2023-12-14T08:11:47;16.23;;;12.10;;
21352;SDS011;10834;52.268;6.770;2023-12-14T08:14:34;16.67;;;12.13;;
21352;SDS011;10834;52.268;6.770;2023-12-14T08:17:18;16.63;;;10.90;;
21352;SDS011;10834;52.268;6.770;2023-12-14T08:20:03;14.40;;;10.67;;
21352;SDS011;10834;52.268;6.770;2023-12-14T08:22:52;15.87;;;10.17;;
21352;SDS011;10834;52.268;6.770;2023-12-14T08:25:36;15.67;;;10.23;;
21352;SDS011;10834;52.268;6.770;2023-12-14T08:28:20;13.27;;;9.57;;
21352;SDS011;10834;52.268;6.770;2023-12-14T08:31:04;13.93;;;10.40;;
21352;SDS011;10834;52.268;6.770;2023-12-14T08:33:49;14.23;;;9.87;;
21352;SDS011;10834;52.268;6.770;2023-12-14T08:36:33;16.13;;;10.77;;
21352;SDS011;10834;52.268;6.770;2023-12-14T08:39:17;14.67;;;9.80;;
21352;SDS011;10834;52.268;6.770;2023-12-14T08:42:02;15.83;;;10.73;;
21352;SDS011;10834;52.268;6.770;2023-12-14T08:44:46;16.37;;;10.97;;
21352;SDS011;10834;52.268;6.770;2023-12-14T08:47:30;17.27;;;11.03;;
21352;SDS011;10834;52.268;6.770;2023-12-14T08:50:14;15.17;;;10.63;;
21352;SDS011;10834;52.268;6.770;2023-12-14T08:52:59;12.97;;;10.13;;
21352;SDS011;10834;52.268;6.770;2023-12-14T08:55:43;13.43;;;10.23;;
21352;SDS011;10834;52.268;6.770;2023-12-14T08:58:27;14.03;;;10.70;;
21352;SDS011;10834;52.268;6.770;2023-12-14T09:01:11;17.50;;;9.93;;
21352;SDS011;10834;52.268;6.770;2023-12-14T09:03:55;15.63;;;10.80;;
21352;SDS011;10834;52.268;6.770;2023-12-14T09:06:39;14.47;;;10.67;;
21352;SDS011;10834;52.268;6.770;2023-12-14T09:09:28;15.30;;;10.23;;
21352;SDS011;10834;52.268;6.770;2023-12-14T09:12:12;13.67;;;10.17;;
21352;SDS011;10834;52.268;6.770;2023-12-14T09:14:57;13.23;;;9.37;;
21352;SDS011;10834;52.268;6.770;2023-12-14T09:17:41;14.67;;;9.30;;
21352;SDS011;10834;52.268;6.770;2023-12-14T09:20:26;13.27;;;9.23;;
21352;SDS011;10834;52.268;6.770;2023-12-14T09:23:11;12.73;;;9.60;;
21352;SDS011;10834;52.268;6.770;2023-12-14T09:25:55;14.33;;;9.50;;
21352;SDS011;10834;52.268;6.770;2023-12-14T09:28:39;14.37;;;9.43;;
21352;SDS011;10834;52.268;6.770;2023-12-14T09:31:23;18.70;;;10.07;;
21352;SDS011;10834;52.268;6.770;2023-12-14T09:34:08;13.93;;;9.03;;
21352;SDS011;10834;52.268;6.770;2023-12-14T09:36:55;14.67;;;9.90;;
21352;SDS011;10834;52.268;6.770;2023-12-14T09:39:39;13.60;;;10.10;;
21352;SDS011;10834;52.268;6.770;2023-12-14T09:42:23;13.27;;;8.97;;
21352;SDS011;10834;52.268;6.770;2023-12-14T09:45:08;14.53;;;10.33;;
21352;SDS011;10834;52.268;6.770;2023-12-14T09:47:53;15.43;;;10.60;;
21352;SDS011;10834;52.268;6.770;2023-12-14T09:50:38;13.30;;;9.63;;
21352;SDS011;10834;52.268;6.770;2023-12-14T09:53:24;15.27;;;10.47;;
21352;SDS011;10834;52.268;6.770;2023-12-14T09:56:08;14.37;;;10.13;;
21352;SDS011;10834;52.268;6.770;2023-12-14T09:58:53;12.07;;;8.83;;
21352;SDS011;10834;52.268;6.770;2023-12-14T10:01:37;14.27;;;9.83;;
21352;SDS011;10834;52.268;6.770;2023-12-14T10:04:21;13.10;;;9.67;;
21352;SDS011;10834;52.268;6.770;2023-12-14T10:07:07;13.93;;;9.13;;
21352;SDS011;10834;52.268;6.770;2023-12-14T10:09:51;12.53;;;9.33;;
21352;SDS011;10834;52.268;6.770;2023-12-14T10:12:55;11.67;;;8.70;;
21352;SDS011;10834;52.268;6.770;2023-12-14T10:15:46;12.23;;;8.63;;
21352;SDS011;10834;52.268;6.770;2023-12-14T10:18:32;10.93;;;7.93;;
21352;SDS011;10834;52.268;6.770;2023-12-14T10:21:19;9.60;;;7.87;;
21352;SDS011;10834;52.268;6.770;2023-12-14T10:24:04;11.47;;;7.83;;
21352;SDS011;10834;52.268;6.770;2023-12-14T10:26:50;13.20;;;9.17;;
21352;SDS011;10834;52.268;6.770;2023-12-14T10:29:36;15.20;;;9.83;;
21352;SDS011;10834;52.268;6.770;2023-12-14T10:32:21;11.43;;;8.43;;
21352;SDS011;10834;52.268;6.770;2023-12-14T10:35:06;13.53;;;8.77;;
21352;SDS011;10834;52.268;6.770;2023-12-14T10:37:51;12.43;;;8.27;;
21352;SDS011;10834;52.268;6.770;2023-12-14T10:40:36;10.53;;;7.27;;
21352;SDS011;10834;52.268;6.770;2023-12-14T10:43:24;10.50;;;7.57;;
21352;SDS011;10834;52.268;6.770;2023-12-14T10:46:09;8.80;;;7.13;;
21352;SDS011;10834;52.268;6.770;2023-12-14T10:48:54;11.30;;;7.63;;
21352;SDS011;10834;52.268;6.770;2023-12-14T10:51:38;13.57;;;7.40;;
21352;SDS011;10834;52.268;6.770;2023-12-14T10:54:26;10.27;;;7.50;;
21352;SDS011;10834;52.268;6.770;2023-12-14T10:57:12;9.63;;;7.50;;
21352;SDS011;10834;52.268;6.770;2023-12-14T10:59:59;9.73;;;7.50;;
21352;SDS011;10834;52.268;6.770;2023-12-14T11:02:47;14.07;;;8.37;;
21352;SDS011;10834;52.268;6.770;2023-12-14T11:05:32;12.17;;;7.33;;
21352;SDS011;10834;52.268;6.770;2023-12-14T11:08:18;11.23;;;7.63;;
21352;SDS011;10834;52.268;6.770;2023-12-14T11:11:03;9.80;;;7.20;;
21352;SDS011;10834;52.268;6.770;2023-12-14T11:13:54;14.00;;;7.30;;
21352;SDS011;10834;52.268;6.770;2023-12-14T11:16:39;8.73;;;6.73;;
21352;SDS011;10834;52.268;6.770;2023-12-14T11:19:28;10.00;;;6.50;;
21352;SDS011;10834;52.268;6.770;2023-12-14T11:22:22;8.77;;;6.60;;
21352;SDS011;10834;52.268;6.770;2023-12-14T11:25:08;8.40;;;6.30;;
21352;SDS011;10834;52.268;6.770;2023-12-14T11:27:52;8.80;;;6.47;;
21352;SDS011;10834;52.268;6.770;2023-12-14T11:30:37;9.40;;;5.87;;
21352;SDS011;10834;52.268;6.770;2023-12-14T11:33:21;9.47;;;7.20;;
21352;SDS011;10834;52.268;6.770;2023-12-14T11:36:06;8.57;;;6.67;;
21352;SDS011;10834;52.268;6.770;2023-12-14T11:38:52;10.77;;;7.47;;
21352;SDS011;10834;52.268;6.770;2023-12-14T11:41:38;11.57;;;7.97;;
21352;SDS011;10834;52.268;6.770;2023-12-14T11:44:22;13.40;;;8.13;;
21352;SDS011;10834;52.268;6.770;2023-12-14T11:47:08;12.10;;;8.77;;
21352;SDS011;10834;52.268;6.770;2023-12-14T11:49:52;10.57;;;8.23;;
21352;SDS011;10834;52.268;6.770;2023-12-14T11:52:37;13.43;;;8.90;;
21352;SDS011;10834;52.268;6.770;2023-12-14T11:55:21;12.30;;;7.93;;
21352;SDS011;10834;52.268;6.770;2023-12-14T11:58:06;11.03;;;8.27;;
21352;SDS011;10834;52.268;6.770;2023-12-14T12:00:51;13.80;;;8.77;;
21352;SDS011;10834;52.268;6.770;2023-12-14T12:03:35;11.53;;;8.90;;
21352;SDS011;10834;52.268;6.770;2023-12-14T12:06:23;13.77;;;8.87;;
21352;SDS011;10834;52.268;6.770;2023-12-14T12:09:08;17.87;;;9.07;;
21352;SDS011;10834;52.268;6.770;2023-12-14T12:11:54;13.97;;;9.20;;
21352;SDS011;10834;52.268;6.770;2023-12-14T12:14:39;11.00;;;8.00;;
21352;SDS011;10834;52.268;6.770;2023-12-14T12:17:23;13.03;;;8.83;;
21352;SDS011;10834;52.268;6.770;2023-12-14T12:20:08;13.73;;;9.57;;
21352;SDS011;10834;52.268;6.770;2023-12-14T12:22:52;12.13;;;8.83;;
21352;SDS011;10834;52.268;6.770;2023-12-14T12:25:37;13.60;;;9.03;;
21352;SDS011;10834;52.268;6.770;2023-12-14T12:28:21;12.33;;;8.30;;
21352;SDS011;10834;52.268;6.770;2023-12-14T12:31:06;12.70;;;8.20;;
21352;SDS011;10834;52.268;6.770;2023-12-14T12:33:50;15.70;;;9.27;;
21352;SDS011;10834;52.268;6.770;2023-12-14T12:36:34;14.47;;;9.73;;
21352;SDS011;10834;52.268;6.770;2023-12-14T12:39:19;14.00;;;9.40;;
21352;SDS011;10834;52.268;6.770;2023-12-14T12:42:03;12.10;;;8.60;;
21352;SDS011;10834;52.268;6.770;2023-12-14T12:44:48;11.53;;;8.03;;
21352;SDS011;10834;52.268;6.770;2023-12-14T12:47:32;14.90;;;9.77;;
21352;SDS011;10834;52.268;6.770;2023-12-14T12:50:16;14.67;;;9.17;;
21352;SDS011;10834;52.268;6.770;2023-12-14T12:53:00;10.53;;;7.53;;
21352;SDS011;10834;52.268;6.770;2023-12-14T12:55:45;13.33;;;8.67;;
21352;SDS011;10834;52.268;6.770;2023-12-14T12:58:48;13.33;;;9.03;;
21352;SDS011;10834;52.268;6.770;2023-12-14T13:01:33;14.90;;;9.03;;
21352;SDS011;10834;52.268;6.770;2023-12-14T13:04:19;16.67;;;9.13;;
21352;SDS011;10834;52.268;6.770;2023-12-14T13:07:06;18.00;;;9.27;;
21352;SDS011;10834;52.268;6.770;2023-12-14T13:09:51;12.77;;;7.87;;
21352;SDS011;10834;52.268;6.770;2023-12-14T13:12:35;14.23;;;8.87;;
21352;SDS011;10834;52.268;6.770;2023-12-14T13:15:19;14.03;;;8.43;;
21352;SDS011;10834;52.268;6.770;2023-12-14T13:18:03;17.13;;;8.03;;
21352;SDS011;10834;52.268;6.770;2023-12-14T13:20:47;16.13;;;8.60;;
21352;SDS011;10834;52.268;6.770;2023-12-14T13:23:31;15.93;;;8.80;;
21352;SDS011;10834;52.268;6.770;2023-12-14T13:26:16;12.90;;;7.70;;
21352;SDS011;10834;52.268;6.770;2023-12-14T13:29:00;16.80;;;9.27;;
21352;SDS011;10834;52.268;6.770;2023-12-14T13:31:45;12.83;;;8.20;;
21352;SDS011;10834;52.268;6.770;2023-12-14T13:34:30;16.17;;;9.63;;
21352;SDS011;10834;52.268;6.770;2023-12-14T13:37:16;14.30;;;8.70;;
21352;SDS011;10834;52.268;6.770;2023-12-14T13:40:01;11.00;;;8.37;;
21352;SDS011;10834;52.268;6.770;2023-12-14T13:42:47;13.00;;;7.97;;
21352;SDS011;10834;52.268;6.770;2023-12-14T13:45:32;12.80;;;8.07;;
21352;SDS011;10834;52.268;6.770;2023-12-14T13:48:17;13.10;;;8.57;;
21352;SDS011;10834;52.268;6.770;2023-12-14T13:54:42;12.47;;;8.30;;
21352;SDS011;10834;52.268;6.770;2023-12-14T13:57:26;12.73;;;8.37;;
21352;SDS011;10834;52.268;6.770;2023-12-14T14:00:11;16.03;;;8.83;;
21352;SDS011;10834;52.268;6.770;2023-12-14T14:02:56;11.73;;;8.47;;
21352;SDS011;10834;52.268;6.770;2023-12-14T14:05:41;16.07;;;8.93;;
21352;SDS011;10834;52.268;6.770;2023-12-14T14:08:27;11.67;;;7.67;;
21352;SDS011;10834;52.268;6.770;2023-12-14T14:11:11;13.20;;;8.27;;
21352;SDS011;10834;52.268;6.770;2023-12-14T14:13:56;15.03;;;8.40;;
21352;SDS011;10834;52.268;6.770;2023-12-14T14:16:41;14.60;;;8.50;;
21352;SDS011;10834;52.268;6.770;2023-12-14T14:19:25;11.63;;;7.43;;
21352;SDS011;10834;52.268;6.770;2023-12-14T14:22:09;11.63;;;7.97;;
21352;SDS011;10834;52.268;6.770;2023-12-14T14:24:53;19.23;;;9.07;;
21352;SDS011;10834;52.268;6.770;2023-12-14T14:27:37;17.60;;;8.33;;
21352;SDS011;10834;52.268;6.770;2023-12-14T14:30:24;14.00;;;8.43;;
21352;SDS011;10834;52.268;6.770;2023-12-14T14:33:08;18.87;;;8.87;;
21352;SDS011;10834;52.268;6.770;2023-12-14T14:35:53;16.33;;;8.27;;
21352;SDS011;10834;52.268;6.770;2023-12-14T14:38:37;17.50;;;9.87;;
21352;SDS011;10834;52.268;6.770;2023-12-14T14:41:21;14.53;;;8.80;;
21352;SDS011;10834;52.268;6.770;2023-12-14T14:44:05;13.43;;;7.90;;
21352;SDS011;10834;52.268;6.770;2023-12-14T14:46:50;14.90;;;8.50;;
21352;SDS011;10834;52.268;6.770;2023-12-14T14:49:34;14.80;;;9.20;;
21352;SDS011;10834;52.268;6.770;2023-12-14T14:52:18;12.90;;;8.40;;
21352;SDS011;10834;52.268;6.770;2023-12-14T14:55:03;15.07;;;9.53;;
21352;SDS011;10834;52.268;6.770;2023-12-14T14:57:47;18.60;;;10.77;;
21352;SDS011;10834;52.268;6.770;2023-12-14T15:00:31;14.63;;;8.97;;
21352;SDS011;10834;52.268;6.770;2023-12-14T15:03:22;21.00;;;10.27;;
21352;SDS011;10834;52.268;6.770;2023-12-14T15:06:06;17.60;;;9.97;;
21352;SDS011;10834;52.268;6.770;2023-12-14T15:08:51;21.20;;;9.87;;
21352;SDS011;10834;52.268;6.770;2023-12-14T15:11:35;14.93;;;9.10;;
21352;SDS011;10834;52.268;6.770;2023-12-14T15:14:19;15.83;;;9.07;;
21352;SDS011;10834;52.268;6.770;2023-12-14T15:17:03;17.63;;;10.13;;
21352;SDS011;10834;52.268;6.770;2023-12-14T15:19:48;14.97;;;9.30;;
21352;SDS011;10834;52.268;6.770;2023-12-14T15:22:33;15.67;;;9.73;;
21352;SDS011;10834;52.268;6.770;2023-12-14T15:25:18;15.00;;;9.57;;
21352;SDS011;10834;52.268;6.770;2023-12-14T15:28:02;15.50;;;9.23;;
21352;SDS011;10834;52.268;6.770;2023-12-14T15:30:46;18.70;;;10.20;;
21352;SDS011;10834;52.268;6.770;2023-12-14T15:33:31;18.37;;;10.43;;
21352;SDS011;10834;52.268;6.770;2023-12-14T15:36:15;17.77;;;10.10;;
21352;SDS011;10834;52.268;6.770;2023-12-14T15:38:59;21.70;;;9.83;;
21352;SDS011;10834;52.268;6.770;2023-12-14T15:41:44;13.70;;;9.37;;
21352;SDS011;10834;52.268;6.770;2023-12-14T15:44:29;16.87;;;9.80;;
21352;SDS011;10834;52.268;6.770;2023-12-14T15:47:13;18.03;;;9.70;;
21352;SDS011;10834;52.268;6.770;2023-12-14T15:49:58;15.60;;;9.53;;
21352;SDS011;10834;52.268;6.770;2023-12-14T15:52:42;19.57;;;9.60;;
21352;SDS011;10834;52.268;6.770;2023-12-14T15:55:27;17.43;;;9.80;;
21352;SDS011;10834;52.268;6.770;2023-12-14T15:58:13;17.63;;;9.80;;
21352;SDS011;10834;52.268;6.770;2023-12-14T16:00:57;15.27;;;9.27;;
21352;SDS011;10834;52.268;6.770;2023-12-14T16:03:41;17.17;;;9.13;;
21352;SDS011;10834;52.268;6.770;2023-12-14T16:06:25;17.50;;;10.20;;
21352;SDS011;10834;52.268;6.770;2023-12-14T16:09:09;17.30;;;10.77;;
21352;SDS011;10834;52.268;6.770;2023-12-14T16:11:54;17.93;;;10.33;;
21352;SDS011;10834;52.268;6.770;2023-12-14T16:14:38;15.13;;;9.67;;